createdAt,value
2023-03-22T00:02:26.426Z,25.50
2023-03-22T00:04:55.224Z,25.60
2023-03-22T00:07:23.541Z,27.20
2023-03-22T00:09:52.188Z,28.50
2023-03-22T00:12:20.636Z,25.90
2023-03-22T00:14:49.675Z,29.80
2023-03-22T00:17:18.655Z,25.90
2023-03-22T00:19:47.690Z,27.20
2023-03-22T00:22:16.442Z,26.50
2023-03-22T00:24:44.901Z,27.30
2023-03-22T00:27:13.394Z,26.60
2023-03-22T00:29:42.320Z,26.60
2023-03-22T00:32:10.668Z,26.90
2023-03-22T00:34:38.929Z,27.80
2023-03-22T00:37:08.238Z,26.10
2023-03-22T00:39:36.559Z,26.00
2023-03-22T00:42:06.890Z,27.20
2023-03-22T00:44:35.108Z,27.70
2023-03-22T00:47:03.816Z,26.70
2023-03-22T00:49:35.393Z,29.10
2023-03-22T00:52:03.900Z,26.10
2023-03-22T00:54:32.190Z,27.50
2023-03-22T00:57:00.715Z,30.90
2023-03-22T00:59:29.024Z,27.80
2023-03-22T01:01:59.177Z,25.40
2023-03-22T01:04:29.673Z,27.40
2023-03-22T01:07:02.328Z,26.90
2023-03-22T01:09:33.955Z,27.20
2023-03-22T01:12:03.218Z,27.50
2023-03-22T01:14:32.112Z,26.30
2023-03-22T01:17:00.799Z,26.10
2023-03-22T01:19:32.182Z,27.80
2023-03-22T01:22:00.538Z,26.50
2023-03-22T01:24:28.705Z,25.50
2023-03-22T01:26:57.423Z,26.50
2023-03-22T01:29:29.634Z,28.70
2023-03-22T01:31:58.011Z,26.40
2023-03-22T01:34:27.108Z,25.80
2023-03-22T01:36:55.481Z,25.20
2023-03-22T01:39:23.963Z,24.90
2023-03-22T01:41:52.563Z,25.20
2023-03-22T01:44:23.378Z,23.80
2023-03-22T01:46:52.272Z,23.10
2023-03-22T01:49:35.294Z,23.30
2023-03-22T01:52:11.966Z,23.60
2023-03-22T01:54:52.934Z,22.90
2023-03-22T01:57:21.843Z,22.40
2023-03-22T01:59:54.027Z,21.20
2023-03-22T02:02:24.880Z,23.00
2023-03-22T02:04:58.359Z,22.60
2023-03-22T02:07:27.447Z,23.10
2023-03-22T02:09:56.024Z,24.60
2023-03-22T02:12:33.096Z,21.40
2023-03-22T02:15:13.512Z,22.40
2023-03-22T02:18:11.575Z,23.60
2023-03-22T02:21:21.697Z,21.60
2023-03-22T02:24:18.678Z,21.40
2023-03-22T02:27:00.024Z,23.80
2023-03-22T02:30:02.473Z,23.80
2023-03-22T02:32:55.241Z,21.40
2023-03-22T02:35:57.708Z,23.20
2023-03-22T02:38:58.118Z,22.50
2023-03-22T02:41:38.919Z,22.30
2023-03-22T02:44:35.716Z,22.10
2023-03-22T02:47:12.406Z,21.70
2023-03-22T02:49:42.880Z,23.10
2023-03-22T02:52:30.544Z,24.90
2023-03-22T02:55:11.189Z,22.50
2023-03-22T02:57:50.685Z,23.30
2023-03-22T03:00:20.065Z,23.90
2023-03-22T03:03:00.312Z,26.30
2023-03-22T03:05:32.564Z,23.30
2023-03-22T03:08:02.942Z,23.10
2023-03-22T03:10:31.500Z,25.80
2023-03-22T03:13:00.091Z,27.70
2023-03-22T03:15:29.145Z,27.60
2023-03-22T03:18:36.918Z,23.40
2023-03-22T03:21:17.459Z,24.70
2023-03-22T03:24:07.191Z,25.80
2023-03-22T03:26:53.901Z,24.40
2023-03-22T03:29:22.122Z,23.50
2023-03-22T03:32:13.574Z,26.50
2023-03-22T03:34:58.146Z,24.20
2023-03-22T03:37:34.243Z,23.40
2023-03-22T03:40:16.801Z,23.70
2023-03-22T03:42:50.801Z,24.90
2023-03-22T03:45:22.295Z,25.90
2023-03-22T03:47:57.286Z,24.60
2023-03-22T03:50:27.221Z,24.20
2023-03-22T03:55:24.654Z,24.60
2023-03-22T03:57:52.827Z,24.50
2023-03-22T04:00:21.097Z,25.30
2023-03-22T04:02:49.627Z,23.60
2023-03-22T04:05:18.294Z,25.50
2023-03-22T04:07:46.615Z,25.70
2023-03-22T04:10:14.920Z,22.40
2023-03-22T04:12:43.111Z,23.30
2023-03-22T04:15:12.625Z,24.10
2023-03-22T04:17:41.498Z,23.80
2023-03-22T04:20:11.183Z,25.00
2023-03-22T04:22:41.449Z,23.00
2023-03-22T04:25:13.097Z,23.60
2023-03-22T04:27:42.873Z,24.30
2023-03-22T04:32:41.261Z,26.30
2023-03-22T04:35:09.721Z,26.60
2023-03-22T04:37:38.007Z,26.50
2023-03-22T04:40:08.401Z,25.50
2023-03-22T04:42:36.654Z,23.30
2023-03-22T04:45:06.116Z,26.00
2023-03-22T04:47:34.458Z,24.50
2023-03-22T04:50:03.192Z,24.40
2023-03-22T04:52:31.393Z,23.60
2023-03-22T04:54:59.870Z,26.10
2023-03-22T04:57:28.292Z,24.30
2023-03-22T04:59:56.541Z,26.70
2023-03-22T05:02:24.736Z,25.10
2023-03-22T05:04:53.095Z,24.80
2023-03-22T05:07:21.758Z,25.70
2023-03-22T05:09:49.968Z,26.90
2023-03-22T05:12:18.470Z,26.10
2023-03-22T05:14:46.707Z,30.20
2023-03-22T05:17:14.992Z,28.10
2023-03-22T05:19:44.215Z,30.00
2023-03-22T05:22:13.443Z,30.70
2023-03-22T05:24:41.844Z,29.80
2023-03-22T05:27:11.177Z,32.10
2023-03-22T05:29:39.367Z,30.50
2023-03-22T05:32:07.614Z,30.90
2023-03-22T05:34:37.331Z,30.50
2023-03-22T05:37:05.505Z,30.90
2023-03-22T05:39:33.986Z,32.80
2023-03-22T05:42:02.273Z,31.20
2023-03-22T05:44:30.470Z,31.90
2023-03-22T05:46:59.230Z,35.20
2023-03-22T05:49:27.620Z,34.60
2023-03-22T05:51:56.138Z,34.00
2023-03-22T05:54:24.508Z,32.60
2023-03-22T05:56:55.263Z,34.40
2023-03-22T05:59:23.937Z,35.30
2023-03-22T06:01:52.844Z,36.10
2023-03-22T06:04:21.295Z,37.30
2023-03-22T06:06:50.651Z,39.40
2023-03-22T06:09:19.072Z,35.20
2023-03-22T06:11:47.406Z,38.40
2023-03-22T06:14:16.166Z,36.40
2023-03-22T06:16:44.455Z,36.10
2023-03-22T06:19:13.087Z,34.80
2023-03-22T06:21:41.415Z,35.70
2023-03-22T06:24:09.909Z,38.60
2023-03-22T06:26:38.149Z,36.10
2023-03-22T06:29:06.717Z,38.00
2023-03-22T06:31:34.989Z,35.80
2023-03-22T06:34:04.366Z,37.20
2023-03-22T06:36:33.070Z,34.50
2023-03-22T06:39:02.966Z,36.00
2023-03-22T06:43:59.637Z,33.80
2023-03-22T06:46:28.063Z,32.60
2023-03-22T06:48:56.364Z,33.90
2023-03-22T06:51:24.900Z,34.70
2023-03-22T06:53:53.197Z,34.30
2023-03-22T06:56:21.477Z,34.60
2023-03-22T06:58:52.060Z,33.50
2023-03-22T07:01:23.418Z,33.50
2023-03-22T07:03:52.016Z,33.00
2023-03-22T07:06:20.387Z,32.90
2023-03-22T07:08:50.746Z,32.80
2023-03-22T07:11:20.532Z,33.70
2023-03-22T07:13:49.561Z,31.60
2023-03-22T07:16:19.917Z,33.20
2023-03-22T07:18:48.512Z,34.20
2023-03-22T07:21:16.710Z,35.10
2023-03-22T07:23:44.929Z,34.50
2023-03-22T07:26:13.716Z,33.20
2023-03-22T07:28:44.865Z,36.10
2023-03-22T07:31:14.487Z,38.00
2023-03-22T07:33:43.155Z,36.80
2023-03-22T07:36:11.681Z,35.60
2023-03-22T07:38:40.738Z,33.90
2023-03-22T07:41:09.040Z,33.70
2023-03-22T07:43:52.297Z,36.60
2023-03-22T07:46:21.019Z,31.60
2023-03-22T07:48:49.826Z,31.40
2023-03-22T07:51:19.377Z,38.10
2023-03-22T07:53:47.609Z,42.70
2023-03-22T07:56:15.916Z,38.10
2023-03-22T07:58:44.496Z,33.30
2023-03-22T08:01:12.877Z,31.00
2023-03-22T08:03:41.791Z,32.90
2023-03-22T08:06:10.463Z,31.60
2023-03-22T08:08:39.245Z,31.80
2023-03-22T08:11:08.250Z,30.20
2023-03-22T08:13:36.599Z,30.70
2023-03-22T08:16:05.944Z,32.90
2023-03-22T08:18:34.504Z,32.90
2023-03-22T08:21:02.771Z,29.90
2023-03-22T08:23:41.477Z,32.90
2023-03-22T08:26:11.363Z,33.40
2023-03-22T08:28:39.649Z,33.10
2023-03-22T08:31:18.732Z,34.70
2023-03-22T08:33:47.738Z,36.20
2023-03-22T08:36:19.062Z,29.30
2023-03-22T08:38:48.556Z,36.90
2023-03-22T08:41:16.838Z,36.40
2023-03-22T08:43:45.069Z,28.00
2023-03-22T08:46:13.393Z,26.50
2023-03-22T08:48:41.855Z,27.40
2023-03-22T08:51:10.901Z,27.60
2023-03-22T08:53:39.129Z,27.60
2023-03-22T08:56:08.028Z,29.40
2023-03-22T08:58:36.650Z,28.40
2023-03-22T09:01:05.166Z,27.70
2023-03-22T09:03:33.453Z,28.00
2023-03-22T09:06:02.149Z,27.80
2023-03-22T09:08:30.822Z,33.40
2023-03-22T09:10:59.168Z,31.30
2023-03-22T09:13:27.596Z,27.00
2023-03-22T09:15:55.833Z,29.50
2023-03-22T09:18:25.194Z,26.80
2023-03-22T09:20:53.542Z,25.30
2023-03-22T09:23:21.788Z,28.40
2023-03-22T09:25:50.014Z,29.00
2023-03-22T09:28:19.398Z,28.50
2023-03-22T09:30:47.791Z,28.00
2023-03-22T09:33:15.990Z,28.40
2023-03-22T09:35:45.035Z,28.20
2023-03-22T09:38:14.002Z,26.10
2023-03-22T09:41:01.058Z,29.30
2023-03-22T09:43:33.713Z,27.80
2023-03-22T09:46:04.084Z,27.90
2023-03-22T09:48:37.414Z,28.90
2023-03-22T09:51:14.074Z,26.90
2023-03-22T09:53:42.310Z,27.90
2023-03-22T09:56:23.267Z,28.50
2023-03-22T09:59:07.594Z,29.10
2023-03-22T10:01:37.757Z,28.10
2023-03-22T10:04:44.180Z,28.20
2023-03-22T10:07:22.452Z,41.70
2023-03-22T10:09:56.810Z,42.80
2023-03-22T10:13:02.332Z,27.80
2023-03-22T10:15:42.797Z,25.30
2023-03-22T10:18:25.059Z,26.20
2023-03-22T10:21:09.681Z,27.90
2023-03-22T10:23:47.889Z,25.20
2023-03-22T10:26:30.686Z,25.40
2023-03-22T10:29:12.638Z,23.10
2023-03-22T10:31:44.920Z,23.50
2023-03-22T10:34:23.682Z,22.70
2023-03-22T10:36:53.276Z,25.80
2023-03-22T10:39:38.414Z,24.90
2023-03-22T10:42:21.495Z,24.20
2023-03-22T10:44:51.170Z,25.10
2023-03-22T10:47:34.442Z,24.40
2023-03-22T10:50:05.759Z,22.70
2023-03-22T10:52:41.844Z,23.60
2023-03-22T10:55:12.764Z,28.20
2023-03-22T10:57:46.461Z,30.60
2023-03-22T11:00:17.830Z,26.40
2023-03-22T11:02:52.068Z,22.90
2023-03-22T11:05:30.308Z,25.60
2023-03-22T11:07:59.195Z,24.70
2023-03-22T11:10:32.971Z,21.80
2023-03-22T11:13:07.548Z,19.50
2023-03-22T11:15:42.113Z,25.90
2023-03-22T11:18:16.596Z,22.40
2023-03-22T11:21:16.231Z,24.70
2023-03-22T11:23:55.628Z,20.30
2023-03-22T11:26:30.505Z,23.20
2023-03-22T11:29:08.050Z,19.70
2023-03-22T11:32:01.027Z,18.40
2023-03-22T11:34:31.848Z,22.80
2023-03-22T11:37:01.368Z,19.60
2023-03-22T11:39:30.359Z,19.10
2023-03-22T11:42:04.434Z,18.20
2023-03-22T11:44:35.645Z,18.10
2023-03-22T11:47:08.000Z,20.20
2023-03-22T11:49:51.080Z,20.70
2023-03-22T11:52:23.471Z,17.50
2023-03-22T11:54:54.365Z,19.70
2023-03-22T11:57:29.988Z,17.20
2023-03-22T12:00:12.328Z,19.20
2023-03-22T12:02:55.070Z,17.20
2023-03-22T12:05:45.076Z,16.30
2023-03-22T12:10:49.399Z,16.80
2023-03-22T12:13:48.812Z,16.00
2023-03-22T12:16:25.097Z,16.50
2023-03-22T12:19:38.691Z,16.00
2023-03-22T12:22:16.271Z,17.50
2023-03-22T12:24:45.519Z,16.70
2023-03-22T12:27:37.669Z,17.70
2023-03-22T12:30:12.561Z,17.70
2023-03-22T12:32:44.830Z,16.20
2023-03-22T12:35:22.470Z,16.90
2023-03-22T12:37:54.420Z,17.40
2023-03-22T12:40:32.374Z,15.40
2023-03-22T12:43:34.966Z,18.00
2023-03-22T12:46:05.550Z,22.00
2023-03-22T12:48:47.532Z,22.30
2023-03-22T12:51:16.067Z,24.90
2023-03-22T12:54:05.587Z,20.90
2023-03-22T12:56:41.341Z,16.50
2023-03-22T12:59:18.652Z,17.90
2023-03-22T13:01:53.949Z,14.40
2023-03-22T13:04:37.911Z,19.70
2023-03-22T13:07:14.221Z,15.70
2023-03-22T13:09:51.430Z,15.10
2023-03-22T13:12:19.601Z,15.40
2023-03-22T13:14:51.180Z,20.00
2023-03-22T13:17:22.606Z,17.10
2023-03-22T13:20:07.005Z,20.40
2023-03-22T13:22:38.113Z,16.20
2023-03-22T13:25:23.084Z,14.50
2023-03-22T13:28:03.734Z,16.90
2023-03-22T13:30:33.226Z,15.00
2023-03-22T13:33:11.459Z,14.50
2023-03-22T13:35:55.221Z,16.00
2023-03-22T13:38:29.834Z,14.30
2023-03-22T13:41:15.316Z,14.30
2023-03-22T13:43:43.486Z,18.80
2023-03-22T13:46:18.048Z,16.60
2023-03-22T13:48:50.868Z,13.30
2023-03-22T13:51:23.072Z,13.90
2023-03-22T13:54:10.209Z,19.80
2023-03-22T13:56:42.216Z,17.00
2023-03-22T13:59:27.401Z,17.40
2023-03-22T14:02:16.499Z,13.60
2023-03-22T14:04:56.680Z,16.20
2023-03-22T14:07:35.062Z,15.20
2023-03-22T14:10:12.989Z,14.30
2023-03-22T14:13:05.016Z,13.20
2023-03-22T14:15:38.959Z,15.40
2023-03-22T14:18:16.017Z,17.20
2023-03-22T14:20:44.869Z,17.20
